sensor_id;sensor_type;location;lat;lon;timestamp;P1;durP1;ratioP1;P2;durP2;ratioP2
79137;SDS011;68544;45.566;10.238;2023-12-07T00:01:05;9.70;;;5.77;;
79137;SDS011;68544;45.566;10.238;2023-12-07T00:03:31;8.13;;;5.80;;
79137;SDS011;68544;45.566;10.238;2023-12-07T00:05:56;6.77;;;5.40;;
79137;SDS011;68544;45.566;10.238;2023-12-07T00:08:22;8.20;;;5.60;;
79137;SDS011;68544;45.566;10.238;2023-12-07T00:10:47;7.67;;;5.63;;
79137;SDS011;68544;45.566;10.238;2023-12-07T00:13:12;7.63;;;5.73;;
79137;SDS011;68544;45.566;10.238;2023-12-07T00:15:38;5.90;;;4.17;;
79137;SDS011;68544;45.566;10.238;2023-12-07T00:18:03;7.13;;;5.07;;
79137;SDS011;68544;45.566;10.238;2023-12-07T00:20:29;7.43;;;4.63;;
79137;SDS011;68544;45.566;10.238;2023-12-07T00:22:55;5.10;;;4.00;;
79137;SDS011;68544;45.566;10.238;2023-12-07T00:25:23;5.57;;;4.45;;
79137;SDS011;68544;45.566;10.238;2023-12-07T00:27:48;4.87;;;3.10;;
79137;SDS011;68544;45.566;10.238;2023-12-07T00:30:14;4.85;;;3.92;;
79137;SDS011;68544;45.566;10.238;2023-12-07T00:32:40;4.17;;;3.43;;
79137;SDS011;68544;45.566;10.238;2023-12-07T00:35:12;5.13;;;3.25;;
79137;SDS011;68544;45.566;10.238;2023-12-07T00:37:38;4.93;;;3.45;;
79137;SDS011;68544;45.566;10.238;2023-12-07T00:40:04;3.53;;;2.87;;
79137;SDS011;68544;45.566;10.238;2023-12-07T00:42:30;3.83;;;3.00;;
79137;SDS011;68544;45.566;10.238;2023-12-07T00:44:56;6.83;;;4.00;;
79137;SDS011;68544;45.566;10.238;2023-12-07T00:47:21;4.80;;;3.43;;
79137;SDS011;68544;45.566;10.238;2023-12-07T00:49:47;3.93;;;3.27;;
79137;SDS011;68544;45.566;10.238;2023-12-07T00:52:12;3.97;;;3.07;;
79137;SDS011;68544;45.566;10.238;2023-12-07T00:54:38;6.43;;;4.43;;
79137;SDS011;68544;45.566;10.238;2023-12-07T00:57:04;4.85;;;3.67;;
79137;SDS011;68544;45.566;10.238;2023-12-07T00:59:30;6.45;;;4.55;;
79137;SDS011;68544;45.566;10.238;2023-12-07T01:02:02;4.35;;;3.33;;
79137;SDS011;68544;45.566;10.238;2023-12-07T01:04:28;5.03;;;3.53;;
79137;SDS011;68544;45.566;10.238;2023-12-07T01:06:54;4.68;;;3.28;;
79137;SDS011;68544;45.566;10.238;2023-12-07T01:09:20;3.35;;;2.85;;
79137;SDS011;68544;45.566;10.238;2023-12-07T01:11:47;5.85;;;3.13;;
79137;SDS011;68544;45.566;10.238;2023-12-07T01:14:12;5.78;;;3.25;;
79137;SDS011;68544;45.566;10.238;2023-12-07T01:16:38;4.70;;;3.47;;
79137;SDS011;68544;45.566;10.238;2023-12-07T01:19:03;5.43;;;3.97;;
79137;SDS011;68544;45.566;10.238;2023-12-07T01:21:28;4.27;;;2.90;;
79137;SDS011;68544;45.566;10.238;2023-12-07T01:23:54;2.87;;;2.57;;
79137;SDS011;68544;45.566;10.238;2023-12-07T01:26:19;3.20;;;2.43;;
79137;SDS011;68544;45.566;10.238;2023-12-07T01:28:45;4.73;;;3.30;;
79137;SDS011;68544;45.566;10.238;2023-12-07T01:31:10;4.13;;;3.00;;
79137;SDS011;68544;45.566;10.238;2023-12-07T01:33:36;5.23;;;3.57;;
79137;SDS011;68544;45.566;10.238;2023-12-07T01:36:01;5.67;;;4.47;;
79137;SDS011;68544;45.566;10.238;2023-12-07T01:38:26;6.10;;;4.33;;
79137;SDS011;68544;45.566;10.238;2023-12-07T01:40:52;6.17;;;3.97;;
79137;SDS011;68544;45.566;10.238;2023-12-07T01:43:18;6.60;;;4.83;;
79137;SDS011;68544;45.566;10.238;2023-12-07T01:45:45;12.35;;;5.80;;
79137;SDS011;68544;45.566;10.238;2023-12-07T01:48:11;9.52;;;6.32;;
79137;SDS011;68544;45.566;10.238;2023-12-07T01:50:38;7.75;;;5.07;;
79137;SDS011;68544;45.566;10.238;2023-12-07T01:53:03;7.70;;;5.60;;
79137;SDS011;68544;45.566;10.238;2023-12-07T01:55:29;9.70;;;5.22;;
79137;SDS011;68544;45.566;10.238;2023-12-07T01:57:57;8.93;;;5.90;;
79137;SDS011;68544;45.566;10.238;2023-12-07T02:00:22;6.70;;;4.67;;
79137;SDS011;68544;45.566;10.238;2023-12-07T02:02:48;8.23;;;6.20;;
79137;SDS011;68544;45.566;10.238;2023-12-07T02:05:15;7.88;;;6.00;;
79137;SDS011;68544;45.566;10.238;2023-12-07T02:07:41;6.40;;;4.43;;
79137;SDS011;68544;45.566;10.238;2023-12-07T02:10:07;5.45;;;3.75;;
79137;SDS011;68544;45.566;10.238;2023-12-07T02:12:33;6.88;;;4.97;;
79137;SDS011;68544;45.566;10.238;2023-12-07T02:15:00;6.90;;;4.78;;
79137;SDS011;68544;45.566;10.238;2023-12-07T02:17:40;5.63;;;4.18;;
79137;SDS011;68544;45.566;10.238;2023-12-07T02:22:55;4.47;;;3.60;;
79137;SDS011;68544;45.566;10.238;2023-12-07T02:25:32;5.30;;;3.63;;
79137;SDS011;68544;45.566;10.238;2023-12-07T02:28:02;3.28;;;2.72;;
79137;SDS011;68544;45.566;10.238;2023-12-07T02:30:28;7.57;;;3.90;;
79137;SDS011;68544;45.566;10.238;2023-12-07T02:32:53;5.57;;;3.90;;
79137;SDS011;68544;45.566;10.238;2023-12-07T02:35:19;3.87;;;3.20;;
79137;SDS011;68544;45.566;10.238;2023-12-07T02:40:15;5.03;;;2.95;;
79137;SDS011;68544;45.566;10.238;2023-12-07T02:42:43;5.10;;;2.90;;
79137;SDS011;68544;45.566;10.238;2023-12-07T02:45:09;4.38;;;3.42;;
79137;SDS011;68544;45.566;10.238;2023-12-07T02:47:36;4.72;;;2.90;;
79137;SDS011;68544;45.566;10.238;2023-12-07T02:50:05;3.50;;;2.50;;
79137;SDS011;68544;45.566;10.238;2023-12-07T02:52:31;5.07;;;3.28;;
79137;SDS011;68544;45.566;10.238;2023-12-07T02:54:57;2.73;;;2.17;;
79137;SDS011;68544;45.566;10.238;2023-12-07T02:57:22;6.73;;;2.60;;
79137;SDS011;68544;45.566;10.238;2023-12-07T02:59:48;4.10;;;3.13;;
79137;SDS011;68544;45.566;10.238;2023-12-07T03:02:13;4.50;;;2.90;;
79137;SDS011;68544;45.566;10.238;2023-12-07T03:04:38;2.80;;;2.20;;
79137;SDS011;68544;45.566;10.238;2023-12-07T03:07:04;3.10;;;2.23;;
79137;SDS011;68544;45.566;10.238;2023-12-07T03:09:29;2.70;;;2.37;;
79137;SDS011;68544;45.566;10.238;2023-12-07T03:11:54;5.03;;;3.07;;
79137;SDS011;68544;45.566;10.238;2023-12-07T03:14:20;2.67;;;2.17;;
79137;SDS011;68544;45.566;10.238;2023-12-07T03:16:45;4.20;;;2.80;;
79137;SDS011;68544;45.566;10.238;2023-12-07T03:19:11;2.90;;;2.07;;
79137;SDS011;68544;45.566;10.238;2023-12-07T03:21:39;2.83;;;1.57;;
79137;SDS011;68544;45.566;10.238;2023-12-07T03:24:06;2.72;;;1.65;;
79137;SDS011;68544;45.566;10.238;2023-12-07T03:26:33;3.00;;;2.13;;
79137;SDS011;68544;45.566;10.238;2023-12-07T03:28:59;2.03;;;1.63;;
79137;SDS011;68544;45.566;10.238;2023-12-07T03:31:24;3.27;;;2.20;;
79137;SDS011;68544;45.566;10.238;2023-12-07T03:33:50;2.60;;;1.83;;
79137;SDS011;68544;45.566;10.238;2023-12-07T03:36:15;3.07;;;2.00;;
79137;SDS011;68544;45.566;10.238;2023-12-07T03:38:41;3.08;;;2.08;;
79137;SDS011;68544;45.566;10.238;2023-12-07T03:41:07;4.10;;;2.40;;
79137;SDS011;68544;45.566;10.238;2023-12-07T03:43:32;3.30;;;2.37;;
79137;SDS011;68544;45.566;10.238;2023-12-07T03:45:58;2.90;;;2.23;;
79137;SDS011;68544;45.566;10.238;2023-12-07T03:48:23;2.90;;;1.93;;
79137;SDS011;68544;45.566;10.238;2023-12-07T03:50:48;4.33;;;1.80;;
79137;SDS011;68544;45.566;10.238;2023-12-07T03:53:14;4.50;;;2.17;;
79137;SDS011;68544;45.566;10.238;2023-12-07T03:55:39;4.43;;;2.07;;
79137;SDS011;68544;45.566;10.238;2023-12-07T03:58:05;2.57;;;1.53;;
79137;SDS011;68544;45.566;10.238;2023-12-07T04:00:31;2.07;;;1.53;;
79137;SDS011;68544;45.566;10.238;2023-12-07T04:02:57;4.32;;;2.17;;
79137;SDS011;68544;45.566;10.238;2023-12-07T04:05:23;3.90;;;2.05;;
79137;SDS011;68544;45.566;10.238;2023-12-07T04:07:49;2.70;;;1.80;;
79137;SDS011;68544;45.566;10.238;2023-12-07T04:10:14;2.27;;;1.33;;
79137;SDS011;68544;45.566;10.238;2023-12-07T04:12:40;3.70;;;1.90;;
79137;SDS011;68544;45.566;10.238;2023-12-07T04:15:05;3.20;;;1.60;;
79137;SDS011;68544;45.566;10.238;2023-12-07T04:17:31;4.40;;;1.95;;
79137;SDS011;68544;45.566;10.238;2023-12-07T04:19:56;2.70;;;1.43;;
79137;SDS011;68544;45.566;10.238;2023-12-07T04:22:22;1.97;;;1.30;;
79137;SDS011;68544;45.566;10.238;2023-12-07T04:24:48;2.38;;;1.17;;
79137;SDS011;68544;45.566;10.238;2023-12-07T04:27:13;2.70;;;1.20;;
79137;SDS011;68544;45.566;10.238;2023-12-07T04:29:39;3.27;;;1.50;;
79137;SDS011;68544;45.566;10.238;2023-12-07T04:32:04;2.47;;;1.50;;
79137;SDS011;68544;45.566;10.238;2023-12-07T04:34:31;2.42;;;1.27;;
79137;SDS011;68544;45.566;10.238;2023-12-07T04:36:56;2.70;;;1.30;;
79137;SDS011;68544;45.566;10.238;2023-12-07T04:39:21;2.27;;;1.67;;
79137;SDS011;68544;45.566;10.238;2023-12-07T04:41:47;1.83;;;1.13;;
79137;SDS011;68544;45.566;10.238;2023-12-07T04:44:12;1.67;;;1.07;;
79137;SDS011;68544;45.566;10.238;2023-12-07T04:46:37;1.80;;;1.40;;
79137;SDS011;68544;45.566;10.238;2023-12-07T04:49:04;2.55;;;1.40;;
79137;SDS011;68544;45.566;10.238;2023-12-07T04:51:29;2.17;;;1.43;;
79137;SDS011;68544;45.566;10.238;2023-12-07T04:53:54;2.43;;;1.50;;
79137;SDS011;68544;45.566;10.238;2023-12-07T04:56:20;1.80;;;1.03;;
79137;SDS011;68544;45.566;10.238;2023-12-07T04:58:45;2.87;;;1.47;;
79137;SDS011;68544;45.566;10.238;2023-12-07T05:01:11;2.43;;;1.50;;
79137;SDS011;68544;45.566;10.238;2023-12-07T05:03:36;2.13;;;0.97;;
79137;SDS011;68544;45.566;10.238;2023-12-07T05:06:02;2.93;;;1.70;;
79137;SDS011;68544;45.566;10.238;2023-12-07T05:08:27;1.43;;;0.93;;
79137;SDS011;68544;45.566;10.238;2023-12-07T05:10:52;2.47;;;1.70;;
79137;SDS011;68544;45.566;10.238;2023-12-07T05:13:18;2.57;;;1.20;;
79137;SDS011;68544;45.566;10.238;2023-12-07T05:15:43;2.20;;;1.20;;
79137;SDS011;68544;45.566;10.238;2023-12-07T05:18:08;1.93;;;1.20;;
79137;SDS011;68544;45.566;10.238;2023-12-07T05:20:34;2.30;;;0.90;;
79137;SDS011;68544;45.566;10.238;2023-12-07T05:23:01;2.28;;;1.30;;
79137;SDS011;68544;45.566;10.238;2023-12-07T05:25:26;2.20;;;1.27;;
79137;SDS011;68544;45.566;10.238;2023-12-07T05:27:51;2.53;;;1.17;;
79137;SDS011;68544;45.566;10.238;2023-12-07T05:30:17;2.20;;;1.20;;
79137;SDS011;68544;45.566;10.238;2023-12-07T05:32:42;6.00;;;1.70;;
79137;SDS011;68544;45.566;10.238;2023-12-07T05:35:08;1.70;;;1.23;;
79137;SDS011;68544;45.566;10.238;2023-12-07T05:37:33;1.73;;;0.97;;
79137;SDS011;68544;45.566;10.238;2023-12-07T05:39:59;2.33;;;1.50;;
79137;SDS011;68544;45.566;10.238;2023-12-07T05:42:24;2.03;;;1.23;;
79137;SDS011;68544;45.566;10.238;2023-12-07T05:44:49;2.10;;;1.40;;
79137;SDS011;68544;45.566;10.238;2023-12-07T05:47:15;2.53;;;1.13;;
79137;SDS011;68544;45.566;10.238;2023-12-07T05:49:40;2.43;;;1.40;;
79137;SDS011;68544;45.566;10.238;2023-12-07T05:52:06;2.27;;;1.20;;
79137;SDS011;68544;45.566;10.238;2023-12-07T05:54:31;4.40;;;2.07;;
79137;SDS011;68544;45.566;10.238;2023-12-07T05:56:56;2.23;;;1.33;;
79137;SDS011;68544;45.566;10.238;2023-12-07T05:59:22;2.70;;;1.20;;
79137;SDS011;68544;45.566;10.238;2023-12-07T06:01:47;2.93;;;1.40;;
79137;SDS011;68544;45.566;10.238;2023-12-07T06:04:14;3.80;;;1.60;;
79137;SDS011;68544;45.566;10.238;2023-12-07T06:06:41;2.55;;;1.55;;
79137;SDS011;68544;45.566;10.238;2023-12-07T06:09:06;3.37;;;2.80;;
79137;SDS011;68544;45.566;10.238;2023-12-07T06:11:32;2.63;;;1.50;;
79137;SDS011;68544;45.566;10.238;2023-12-07T06:13:58;2.30;;;1.38;;
79137;SDS011;68544;45.566;10.238;2023-12-07T06:16:24;1.77;;;1.20;;
79137;SDS011;68544;45.566;10.238;2023-12-07T06:18:51;3.42;;;1.92;;
79137;SDS011;68544;45.566;10.238;2023-12-07T06:21:16;3.47;;;1.77;;
79137;SDS011;68544;45.566;10.238;2023-12-07T06:23:42;3.17;;;1.40;;
79137;SDS011;68544;45.566;10.238;2023-12-07T06:26:07;2.83;;;1.27;;
79137;SDS011;68544;45.566;10.238;2023-12-07T06:28:33;5.03;;;1.27;;
79137;SDS011;68544;45.566;10.238;2023-12-07T06:31:04;2.83;;;1.57;;
79137;SDS011;68544;45.566;10.238;2023-12-07T06:33:31;3.13;;;1.77;;
79137;SDS011;68544;45.566;10.238;2023-12-07T06:35:56;2.10;;;1.10;;
79137;SDS011;68544;45.566;10.238;2023-12-07T06:38:21;3.10;;;1.90;;
79137;SDS011;68544;45.566;10.238;2023-12-07T06:40:47;1.90;;;1.27;;
79137;SDS011;68544;45.566;10.238;2023-12-07T06:43:12;2.00;;;1.33;;
79137;SDS011;68544;45.566;10.238;2023-12-07T06:45:39;2.67;;;1.80;;
79137;SDS011;68544;45.566;10.238;2023-12-07T06:48:04;2.70;;;1.53;;
79137;SDS011;68544;45.566;10.238;2023-12-07T06:50:30;4.13;;;1.73;;
79137;SDS011;68544;45.566;10.238;2023-12-07T06:52:55;2.30;;;1.13;;
79137;SDS011;68544;45.566;10.238;2023-12-07T06:55:21;2.90;;;1.90;;
79137;SDS011;68544;45.566;10.238;2023-12-07T07:00:13;2.70;;;1.75;;
79137;SDS011;68544;45.566;10.238;2023-12-07T07:02:38;5.33;;;2.30;;
79137;SDS011;68544;45.566;10.238;2023-12-07T07:05:04;2.37;;;1.70;;
79137;SDS011;68544;45.566;10.238;2023-12-07T07:07:31;4.70;;;2.38;;
79137;SDS011;68544;45.566;10.238;2023-12-07T07:09:56;3.80;;;2.10;;
79137;SDS011;68544;45.566;10.238;2023-12-07T07:12:22;5.35;;;1.73;;
79137;SDS011;68544;45.566;10.238;2023-12-07T07:14:48;2.15;;;1.63;;
79137;SDS011;68544;45.566;10.238;2023-12-07T07:17:14;7.93;;;2.87;;
79137;SDS011;68544;45.566;10.238;2023-12-07T07:19:40;6.85;;;2.60;;
79137;SDS011;68544;45.566;10.238;2023-12-07T07:22:07;6.78;;;3.13;;
79137;SDS011;68544;45.566;10.238;2023-12-07T07:24:34;5.47;;;3.03;;
79137;SDS011;68544;45.566;10.238;2023-12-07T07:26:59;12.53;;;3.97;;
79137;SDS011;68544;45.566;10.238;2023-12-07T07:29:25;2.70;;;1.67;;
79137;SDS011;68544;45.566;10.238;2023-12-07T07:31:50;10.50;;;2.77;;
79137;SDS011;68544;45.566;10.238;2023-12-07T07:34:15;2.73;;;1.77;;
79137;SDS011;68544;45.566;10.238;2023-12-07T07:36:41;3.03;;;2.03;;
79137;SDS011;68544;45.566;10.238;2023-12-07T07:39:06;2.27;;;1.50;;
79137;SDS011;68544;45.566;10.238;2023-12-07T07:41:33;6.18;;;2.20;;
79137;SDS011;68544;45.566;10.238;2023-12-07T07:46:24;3.95;;;2.28;;
79137;SDS011;68544;45.566;10.238;2023-12-07T07:48:50;3.77;;;2.33;;
79137;SDS011;68544;45.566;10.238;2023-12-07T07:51:15;5.90;;;2.40;;
79137;SDS011;68544;45.566;10.238;2023-12-07T07:53:41;4.77;;;2.40;;
79137;SDS011;68544;45.566;10.238;2023-12-07T07:56:06;4.70;;;2.17;;
79137;SDS011;68544;45.566;10.238;2023-12-07T07:58:32;13.30;;;2.30;;
79137;SDS011;68544;45.566;10.238;2023-12-07T08:00:57;6.87;;;2.40;;
79137;SDS011;68544;45.566;10.238;2023-12-07T08:03:23;6.67;;;2.60;;
79137;SDS011;68544;45.566;10.238;2023-12-07T08:05:48;5.60;;;2.40;;
79137;SDS011;68544;45.566;10.238;2023-12-07T08:08:14;3.83;;;1.67;;
79137;SDS011;68544;45.566;10.238;2023-12-07T08:10:39;18.50;;;3.80;;
79137;SDS011;68544;45.566;10.238;2023-12-07T08:13:05;11.17;;;2.00;;
79137;SDS011;68544;45.566;10.238;2023-12-07T08:15:32;8.43;;;2.95;;
79137;SDS011;68544;45.566;10.238;2023-12-07T08:17:58;13.65;;;2.15;;
79137;SDS011;68544;45.566;10.238;2023-12-07T08:20:24;2.33;;;1.80;;
79137;SDS011;68544;45.566;10.238;2023-12-07T08:22:50;4.93;;;1.85;;
79137;SDS011;68544;45.566;10.238;2023-12-07T08:25:15;5.97;;;2.80;;
79137;SDS011;68544;45.566;10.238;2023-12-07T08:27:42;5.60;;;2.85;;
79137;SDS011;68544;45.566;10.238;2023-12-07T08:30:10;3.10;;;2.25;;
79137;SDS011;68544;45.566;10.238;2023-12-07T08:32:35;6.00;;;1.97;;
79137;SDS011;68544;45.566;10.238;2023-12-07T08:35:01;2.78;;;1.40;;
79137;SDS011;68544;45.566;10.238;2023-12-07T08:37:27;3.83;;;1.77;;
79137;SDS011;68544;45.566;10.238;2023-12-07T08:39:53;2.50;;;1.92;;
79137;SDS011;68544;45.566;10.238;2023-12-07T08:42:19;1.60;;;1.13;;
79137;SDS011;68544;45.566;10.238;2023-12-07T08:44:44;2.03;;;1.30;;
79137;SDS011;68544;45.566;10.238;2023-12-07T08:47:10;4.43;;;1.30;;
79137;SDS011;68544;45.566;10.238;2023-12-07T08:49:35;1.43;;;0.97;;
79137;SDS011;68544;45.566;10.238;2023-12-07T08:52:01;2.00;;;1.40;;
79137;SDS011;68544;45.566;10.238;2023-12-07T08:54:28;3.13;;;1.70;;
79137;SDS011;68544;45.566;10.238;2023-12-07T08:56:53;3.10;;;1.90;;
79137;SDS011;68544;45.566;10.238;2023-12-07T08:59:18;4.70;;;2.17;;
79137;SDS011;68544;45.566;10.238;2023-12-07T09:01:44;3.40;;;2.20;;
79137;SDS011;68544;45.566;10.238;2023-12-07T09:04:09;3.67;;;2.07;;
79137;SDS011;68544;45.566;10.238;2023-12-07T09:06:38;6.87;;;1.87;;
79137;SDS011;68544;45.566;10.238;2023-12-07T09:09:03;21.15;;;3.95;;
79137;SDS011;68544;45.566;10.238;2023-12-07T09:11:30;17.77;;;4.22;;
79137;SDS011;68544;45.566;10.238;2023-12-07T09:13:55;3.63;;;1.58;;
79137;SDS011;68544;45.566;10.238;2023-12-07T09:16:21;2.33;;;1.70;;
79137;SDS011;68544;45.566;10.238;2023-12-07T09:18:46;2.20;;;1.60;;
79137;SDS011;68544;45.566;10.238;2023-12-07T09:21:12;1.70;;;1.27;;
79137;SDS011;68544;45.566;10.238;2023-12-07T09:23:37;32.20;;;7.00;;
79137;SDS011;68544;45.566;10.238;2023-12-07T09:26:03;14.23;;;3.90;;
79137;SDS011;68544;45.566;10.238;2023-12-07T09:28:29;5.20;;;1.90;;
79137;SDS011;68544;45.566;10.238;2023-12-07T09:30:55;6.67;;;2.30;;
79137;SDS011;68544;45.566;10.238;2023-12-07T09:33:20;5.30;;;2.53;;
79137;SDS011;68544;45.566;10.238;2023-12-07T09:35:45;7.33;;;3.03;;
79137;SDS011;68544;45.566;10.238;2023-12-07T09:38:11;2.87;;;1.97;;
79137;SDS011;68544;45.566;10.238;2023-12-07T09:40:36;7.03;;;3.33;;
79137;SDS011;68544;45.566;10.238;2023-12-07T09:43:02;5.93;;;3.60;;
79137;SDS011;68544;45.566;10.238;2023-12-07T09:45:27;7.87;;;3.80;;
79137;SDS011;68544;45.566;10.238;2023-12-07T09:47:53;9.63;;;3.57;;
79137;SDS011;68544;45.566;10.238;2023-12-07T09:50:20;6.70;;;2.85;;
79137;SDS011;68544;45.566;10.238;2023-12-07T09:52:50;5.85;;;2.78;;
79137;SDS011;68544;45.566;10.238;2023-12-07T09:55:16;4.82;;;2.42;;
79137;SDS011;68544;45.566;10.238;2023-12-07T09:57:43;4.13;;;2.58;;
79137;SDS011;68544;45.566;10.238;2023-12-07T10:00:08;4.17;;;2.13;;
79137;SDS011;68544;45.566;10.238;2023-12-07T10:02:38;6.47;;;2.40;;
79137;SDS011;68544;45.566;10.238;2023-12-07T10:05:08;6.13;;;2.50;;
79137;SDS011;68544;45.566;10.238;2023-12-07T10:07:45;5.78;;;4.03;;
79137;SDS011;68544;45.566;10.238;2023-12-07T10:10:13;5.53;;;4.30;;
79137;SDS011;68544;45.566;10.238;2023-12-07T10:12:51;3.28;;;2.97;;
79137;SDS011;68544;45.566;10.238;2023-12-07T10:15:17;5.70;;;4.53;;
79137;SDS011;68544;45.566;10.238;2023-12-07T10:17:51;6.15;;;4.53;;
79137;SDS011;68544;45.566;10.238;2023-12-07T10:20:22;6.05;;;4.38;;
79137;SDS011;68544;45.566;10.238;2023-12-07T10:22:49;4.05;;;3.13;;
79137;SDS011;68544;45.566;10.238;2023-12-07T10:25:27;4.07;;;3.42;;
79137;SDS011;68544;45.566;10.238;2023-12-07T10:30:19;5.07;;;3.47;;
79137;SDS011;68544;45.566;10.238;2023-12-07T10:32:50;5.43;;;3.65;;
79137;SDS011;68544;45.566;10.238;2023-12-07T10:35:17;6.95;;;4.10;;
79137;SDS011;68544;45.566;10.238;2023-12-07T10:37:43;5.03;;;4.20;;
79137;SDS011;68544;45.566;10.238;2023-12-07T10:40:09;5.13;;;3.90;;
79137;SDS011;68544;45.566;10.238;2023-12-07T10:42:35;6.38;;;3.42;;
79137;SDS011;68544;45.566;10.238;2023-12-07T10:45:04;6.60;;;3.50;;
79137;SDS011;68544;45.566;10.238;2023-12-07T10:47:32;5.22;;;3.95;;
79137;SDS011;68544;45.566;10.238;2023-12-07T10:50:06;6.30;;;3.92;;
79137;SDS011;68544;45.566;10.238;2023-12-07T10:52:44;6.15;;;3.53;;
79137;SDS011;68544;45.566;10.238;2023-12-07T10:55:15;5.18;;;3.50;;
79137;SDS011;68544;45.566;10.238;2023-12-07T10:57:43;5.72;;;3.65;;
79137;SDS011;68544;45.566;10.238;2023-12-07T11:00:09;6.10;;;4.45;;
79137;SDS011;68544;45.566;10.238;2023-12-07T11:02:36;5.53;;;4.35;;
79137;SDS011;68544;45.566;10.238;2023-12-07T11:05:04;4.68;;;3.80;;
79137;SDS011;68544;45.566;10.238;2023-12-07T11:10:22;5.03;;;3.28;;
79137;SDS011;68544;45.566;10.238;2023-12-07T11:12:56;6.07;;;3.38;;
79137;SDS011;68544;45.566;10.238;2023-12-07T11:15:34;3.92;;;2.85;;
79137;SDS011;68544;45.566;10.238;2023-12-07T11:18:00;5.78;;;2.72;;
79137;SDS011;68544;45.566;10.238;2023-12-07T11:20:45;3.95;;;2.72;;
79137;SDS011;68544;45.566;10.238;2023-12-07T11:23:17;3.17;;;2.47;;
79137;SDS011;68544;45.566;10.238;2023-12-07T11:25:45;3.30;;;2.47;;
79137;SDS011;68544;45.566;10.238;2023-12-07T11:28:12;4.13;;;2.47;;
79137;SDS011;68544;45.566;10.238;2023-12-07T11:30:38;3.15;;;2.33;;
79137;SDS011;68544;45.566;10.238;2023-12-07T11:33:07;3.97;;;2.42;;
79137;SDS011;68544;45.566;10.238;2023-12-07T11:36:03;2.63;;;1.77;;
79137;SDS011;68544;45.566;10.238;2023-12-07T11:38:33;3.25;;;1.90;;
79137;SDS011;68544;45.566;10.238;2023-12-07T11:40:59;2.65;;;1.45;;
79137;SDS011;68544;45.566;10.238;2023-12-07T11:46:00;2.53;;;1.73;;
79137;SDS011;68544;45.566;10.238;2023-12-07T11:48:26;3.35;;;1.30;;
79137;SDS011;68544;45.566;10.238;2023-12-07T11:53:34;2.90;;;1.80;;
79137;SDS011;68544;45.566;10.238;2023-12-07T11:56:07;3.75;;;1.85;;
79137;SDS011;68544;45.566;10.238;2023-12-07T11:58:35;2.47;;;1.70;;
79137;SDS011;68544;45.566;10.238;2023-12-07T12:01:02;3.25;;;2.00;;
79137;SDS011;68544;45.566;10.238;2023-12-07T12:03:28;3.70;;;1.60;;
79137;SDS011;68544;45.566;10.238;2023-12-07T12:05:57;1.90;;;1.35;;
79137;SDS011;68544;45.566;10.238;2023-12-07T12:10:49;4.63;;;1.63;;
79137;SDS011;68544;45.566;10.238;2023-12-07T12:13:25;3.03;;;1.98;;
79137;SDS011;68544;45.566;10.238;2023-12-07T12:15:54;4.15;;;2.38;;
79137;SDS011;68544;45.566;10.238;2023-12-07T12:18:21;3.50;;;2.40;;
79137;SDS011;68544;45.566;10.238;2023-12-07T12:23:12;3.88;;;2.30;;
79137;SDS011;68544;45.566;10.238;2023-12-07T12:25:37;3.47;;;2.30;;
79137;SDS011;68544;45.566;10.238;2023-12-07T12:28:05;4.20;;;2.45;;
79137;SDS011;68544;45.566;10.238;2023-12-07T12:30:32;4.20;;;2.50;;
79137;SDS011;68544;45.566;10.238;2023-12-07T12:32:58;6.78;;;3.65;;
79137;SDS011;68544;45.566;10.238;2023-12-07T12:35:27;8.73;;;5.97;;
79137;SDS011;68544;45.566;10.238;2023-12-07T12:37:53;6.63;;;4.93;;
79137;SDS011;68544;45.566;10.238;2023-12-07T12:40:22;10.32;;;5.22;;
79137;SDS011;68544;45.566;10.238;2023-12-07T12:42:49;11.35;;;5.32;;
79137;SDS011;68544;45.566;10.238;2023-12-07T12:45:16;8.27;;;5.47;;
79137;SDS011;68544;45.566;10.238;2023-12-07T12:47:45;13.52;;;6.28;;
79137;SDS011;68544;45.566;10.238;2023-12-07T12:50:12;10.10;;;5.50;;
79137;SDS011;68544;45.566;10.238;2023-12-07T12:52:58;9.68;;;5.75;;
79137;SDS011;68544;45.566;10.238;2023-12-07T12:57:50;8.80;;;6.28;;
79137;SDS011;68544;45.566;10.238;2023-12-07T13:00:16;11.25;;;6.55;;
79137;SDS011;68544;45.566;10.238;2023-12-07T13:02:41;9.63;;;6.20;;
79137;SDS011;68544;45.566;10.238;2023-12-07T13:05:07;7.33;;;6.10;;
79137;SDS011;68544;45.566;10.238;2023-12-07T13:07:32;10.23;;;7.47;;
79137;SDS011;68544;45.566;10.238;2023-12-07T13:09:58;13.67;;;7.03;;
79137;SDS011;68544;45.566;10.238;2023-12-07T13:12:23;9.00;;;6.63;;
79137;SDS011;68544;45.566;10.238;2023-12-07T13:14:49;10.20;;;7.07;;
79137;SDS011;68544;45.566;10.238;2023-12-07T13:17:14;10.73;;;6.73;;
79137;SDS011;68544;45.566;10.238;2023-12-07T13:19:41;10.77;;;7.13;;
79137;SDS011;68544;45.566;10.238;2023-12-07T13:22:06;10.10;;;6.97;;
79137;SDS011;68544;45.566;10.238;2023-12-07T13:24:32;14.17;;;6.43;;
79137;SDS011;68544;45.566;10.238;2023-12-07T13:26:57;9.00;;;6.40;;
79137;SDS011;68544;45.566;10.238;2023-12-07T13:29:25;7.95;;;6.22;;
79137;SDS011;68544;45.566;10.238;2023-12-07T13:31:50;9.47;;;6.27;;
79137;SDS011;68544;45.566;10.238;2023-12-07T13:34:16;9.17;;;6.30;;
79137;SDS011;68544;45.566;10.238;2023-12-07T13:36:41;8.23;;;5.53;;
79137;SDS011;68544;45.566;10.238;2023-12-07T13:39:07;9.20;;;6.20;;
79137;SDS011;68544;45.566;10.238;2023-12-07T13:41:34;7.80;;;5.38;;
79137;SDS011;68544;45.566;10.238;2023-12-07T13:43:59;8.73;;;5.25;;
79137;SDS011;68544;45.566;10.238;2023-12-07T13:46:26;7.15;;;5.47;;
79137;SDS011;68544;45.566;10.238;2023-12-07T13:48:52;8.53;;;6.20;;
79137;SDS011;68544;45.566;10.238;2023-12-07T13:51:17;11.57;;;6.07;;
79137;SDS011;68544;45.566;10.238;2023-12-07T13:53:43;7.95;;;5.95;;
79137;SDS011;68544;45.566;10.238;2023-12-07T13:56:09;15.77;;;6.67;;
79137;SDS011;68544;45.566;10.238;2023-12-07T13:58:34;9.63;;;6.28;;
79137;SDS011;68544;45.566;10.238;2023-12-07T14:01:00;8.43;;;6.00;;
79137;SDS011;68544;45.566;10.238;2023-12-07T14:03:26;12.75;;;6.47;;
79137;SDS011;68544;45.566;10.238;2023-12-07T14:05:51;9.35;;;5.78;;
79137;SDS011;68544;45.566;10.238;2023-12-07T14:08:17;7.17;;;5.33;;
79137;SDS011;68544;45.566;10.238;2023-12-07T14:10:44;9.30;;;5.97;;
79137;SDS011;68544;45.566;10.238;2023-12-07T14:13:09;8.77;;;5.68;;
79137;SDS011;68544;45.566;10.238;2023-12-07T14:15:35;7.70;;;4.97;;
79137;SDS011;68544;45.566;10.238;2023-12-07T14:18:00;7.00;;;5.33;;
79137;SDS011;68544;45.566;10.238;2023-12-07T14:20:27;11.00;;;6.18;;
79137;SDS011;68544;45.566;10.238;2023-12-07T14:22:56;8.45;;;5.53;;
79137;SDS011;68544;45.566;10.238;2023-12-07T14:25:22;8.57;;;5.60;;
79137;SDS011;68544;45.566;10.238;2023-12-07T14:27:48;9.57;;;5.75;;
79137;SDS011;68544;45.566;10.238;2023-12-07T14:30:13;10.93;;;5.90;;
79137;SDS011;68544;45.566;10.238;2023-12-07T14:32:41;12.05;;;5.55;;
79137;SDS011;68544;45.566;10.238;2023-12-07T14:35:08;9.02;;;5.63;;
79137;SDS011;68544;45.566;10.238;2023-12-07T14:37:34;11.73;;;6.00;;
79137;SDS011;68544;45.566;10.238;2023-12-07T14:39:59;8.83;;;5.80;;
79137;SDS011;68544;45.566;10.238;2023-12-07T14:42:25;11.07;;;6.03;;
79137;SDS011;68544;45.566;10.238;2023-12-07T14:44:51;10.85;;;5.78;;
79137;SDS011;68544;45.566;10.238;2023-12-07T14:47:16;10.17;;;4.37;;
79137;SDS011;68544;45.566;10.238;2023-12-07T14:49:41;10.63;;;5.77;;
79137;SDS011;68544;45.566;10.238;2023-12-07T14:52:07;7.63;;;5.47;;
79137;SDS011;68544;45.566;10.238;2023-12-07T14:54:32;12.33;;;5.73;;
79137;SDS011;68544;45.566;10.238;2023-12-07T14:56:58;9.97;;;6.20;;